Aviation Digital Data Service (ADDS)

Output produced by METARs form (0817 UTC 25 April 2014)
found at http://www.aviationweather.gov/adds/metars/
 
KATL 250736Z 2508/2612 21007KT P6SM VCSH SCT012 BKN050 OVC070 
     FM251100 22007KT P6SM BKN012 OVC050 
     FM251500 24010G20KT P6SM BKN035 
     FM252000 28012KT P6SM SCT045 
     FM260200 33008KT P6SM SKC